createdAt,value
2018-05-26T00:00:53.419Z,0
2018-05-26T00:01:53.430Z,0
2018-05-26T00:02:53.423Z,0
2018-05-26T00:03:53.153Z,0
2018-05-26T00:04:53.160Z,0
2018-05-26T00:05:53.428Z,0
2018-05-26T00:06:52.905Z,0
2018-05-26T00:07:53.165Z,0
2018-05-26T00:08:52.918Z,0
2018-05-26T00:09:52.905Z,0
2018-05-26T00:10:53.705Z,0
2018-05-26T00:11:53.163Z,0
2018-05-26T00:12:53.176Z,0
2018-05-26T00:13:53.182Z,0
2018-05-26T00:14:53.172Z,0
2018-05-26T00:15:53.225Z,0
2018-05-26T00:16:53.208Z,0
2018-05-26T00:17:53.467Z,0
2018-05-26T00:18:53.490Z,0
2018-05-26T00:19:53.432Z,0
2018-05-26T00:20:53.186Z,0
2018-05-26T00:21:52.918Z,0
2018-05-26T00:22:53.719Z,0
2018-05-26T00:23:53.203Z,0
2018-05-26T00:24:53.457Z,0
2018-05-26T00:25:53.726Z,0
2018-05-26T00:26:52.977Z,0
2018-05-26T00:27:53.453Z,0
2018-05-26T00:28:53.465Z,0
2018-05-26T00:29:53.712Z,0
2018-05-26T00:30:53.482Z,0
2018-05-26T00:31:54.541Z,0
2018-05-26T00:32:53.471Z,0
2018-05-26T00:33:53.194Z,0
2018-05-26T00:34:53.258Z,0
2018-05-26T00:35:53.731Z,0
2018-05-26T00:36:53.206Z,0
2018-05-26T00:37:53.220Z,0
2018-05-26T00:38:53.723Z,0
2018-05-26T00:39:53.456Z,0
2018-05-26T00:40:53.489Z,0
2018-05-26T00:41:53.258Z,0
2018-05-26T00:42:53.721Z,0
2018-05-26T00:43:53.503Z,0
2018-05-26T00:44:53.198Z,0
2018-05-26T00:45:53.211Z,0
2018-05-26T00:46:52.943Z,0
2018-05-26T00:47:53.460Z,0
2018-05-26T00:48:53.488Z,0
2018-05-26T00:49:53.224Z,0
2018-05-26T00:50:53.461Z,0
2018-05-26T00:51:53.496Z,0
2018-05-26T00:52:53.483Z,0
2018-05-26T00:53:53.221Z,0
2018-05-26T00:54:53.467Z,0
2018-05-26T00:55:52.952Z,0
2018-05-26T00:56:52.956Z,0
2018-05-26T00:57:53.205Z,0
2018-05-26T00:58:53.467Z,0
2018-05-26T00:59:53.483Z,0
2018-05-26T01:00:53.260Z,0
2018-05-26T01:01:53.769Z,0
2018-05-26T01:02:53.243Z,0
2018-05-26T01:03:53.493Z,0
2018-05-26T01:04:53.468Z,0
2018-05-26T01:05:52.960Z,0
2018-05-26T01:06:53.496Z,0
2018-05-26T01:07:53.234Z,0
2018-05-26T01:08:53.475Z,0
2018-05-26T01:09:52.735Z,0
2018-05-26T01:10:53.222Z,0
2018-05-26T01:11:53.506Z,0
2018-05-26T01:12:53.222Z,0
2018-05-26T01:13:52.724Z,0
2018-05-26T01:14:53.006Z,0
2018-05-26T01:15:53.749Z,0
2018-05-26T01:16:53.267Z,0
2018-05-26T01:17:53.767Z,0
2018-05-26T01:18:53.766Z,0
2018-05-26T01:19:53.502Z,0
2018-05-26T01:20:53.504Z,0
2018-05-26T01:21:53.504Z,0
2018-05-26T01:22:53.758Z,0
2018-05-26T01:23:52.973Z,0
2018-05-26T01:24:53.248Z,0
2018-05-26T01:25:53.007Z,0
2018-05-26T01:26:53.499Z,0
2018-05-26T01:27:53.498Z,0
2018-05-26T01:28:53.245Z,0
2018-05-26T01:29:53.238Z,0
2018-05-26T01:30:53.238Z,0
2018-05-26T01:31:53.529Z,0
2018-05-26T01:32:53.249Z,0
2018-05-26T01:33:53.510Z,0
2018-05-26T01:34:53.781Z,0
2018-05-26T01:35:53.256Z,0
2018-05-26T01:36:53.511Z,0
2018-05-26T01:37:53.256Z,0
2018-05-26T01:38:53.268Z,0
2018-05-26T01:39:53.533Z,0
2018-05-26T01:40:52.991Z,0
2018-05-26T01:41:53.254Z,0
2018-05-26T01:42:53.007Z,0
2018-05-26T01:43:52.762Z,0
2018-05-26T01:44:53.008Z,0
2018-05-26T01:45:53.249Z,0
2018-05-26T01:46:52.985Z,0
2018-05-26T01:47:53.521Z,0
2018-05-26T01:48:53.520Z,0
2018-05-26T01:49:53.774Z,0
2018-05-26T01:50:53.253Z,0
2018-05-26T01:51:53.516Z,0
2018-05-26T01:52:53.807Z,0
2018-05-26T01:53:53.525Z,0
2018-05-26T01:54:53.520Z,0
2018-05-26T01:55:53.246Z,0
2018-05-26T01:56:53.311Z,0
2018-05-26T01:57:52.991Z,0
2018-05-26T01:58:53.000Z,0
2018-05-26T01:59:52.998Z,0
2018-05-26T02:00:53.268Z,0
2018-05-26T02:01:53.286Z,0
2018-05-26T02:02:53.778Z,0
2018-05-26T02:03:53.526Z,0
2018-05-26T02:04:53.262Z,0
2018-05-26T02:05:53.773Z,0
2018-05-26T02:06:53.548Z,0
2018-05-26T02:07:53.257Z,0
2018-05-26T02:08:53.528Z,0
2018-05-26T02:09:53.550Z,0
2018-05-26T02:10:53.542Z,0
2018-05-26T02:11:53.536Z,0
2018-05-26T02:12:53.279Z,0
2018-05-26T02:13:53.283Z,0
2018-05-26T02:14:53.834Z,0
2018-05-26T02:15:53.281Z,0
2018-05-26T02:16:53.553Z,0
2018-05-26T02:17:53.283Z,0
2018-05-26T02:18:53.018Z,0
2018-05-26T02:19:53.537Z,0
2018-05-26T02:20:53.531Z,0
2018-05-26T02:21:53.284Z,0
2018-05-26T02:22:53.827Z,0
2018-05-26T02:23:53.798Z,0
2018-05-26T02:24:53.540Z,0
2018-05-26T02:25:53.298Z,0
2018-05-26T02:26:53.842Z,0
2018-05-26T02:27:53.544Z,0
2018-05-26T02:28:53.030Z,0
2018-05-26T02:29:53.776Z,0
2018-05-26T02:30:53.535Z,0
2018-05-26T02:31:53.808Z,0
2018-05-26T02:32:53.553Z,0
2018-05-26T02:33:53.549Z,0
2018-05-26T02:34:53.812Z,0
2018-05-26T02:35:53.543Z,0
2018-05-26T02:36:53.537Z,0
2018-05-26T02:37:53.806Z,0
2018-05-26T02:38:53.541Z,0
2018-05-26T02:39:53.812Z,0
2018-05-26T02:40:53.539Z,0
2018-05-26T02:41:53.555Z,0
2018-05-26T02:42:53.265Z,0
2018-05-26T02:43:53.540Z,0
2018-05-26T02:44:53.532Z,0
2018-05-26T02:45:53.292Z,0
2018-05-26T02:46:53.295Z,0
2018-05-26T02:47:53.296Z,0
2018-05-26T02:48:53.831Z,0
2018-05-26T02:49:53.550Z,0
2018-05-26T02:50:53.283Z,0
2018-05-26T02:51:53.276Z,0
2018-05-26T02:52:53.296Z,0
2018-05-26T02:53:53.577Z,0
2018-05-26T02:54:53.802Z,0
2018-05-26T02:55:53.544Z,0
2018-05-26T02:56:53.544Z,0
2018-05-26T02:57:53.811Z,0
2018-05-26T02:58:53.548Z,0
2018-05-26T02:59:53.549Z,0
2018-05-26T03:00:53.563Z,0
2018-05-26T03:01:53.806Z,0
2018-05-26T03:02:53.542Z,0
2018-05-26T03:03:53.807Z,0
2018-05-26T03:04:53.814Z,0
2018-05-26T03:05:53.278Z,0
2018-05-26T03:06:53.821Z,0
2018-05-26T03:07:53.793Z,0
2018-05-26T03:08:53.537Z,0
2018-05-26T03:09:53.556Z,0
2018-05-26T03:10:53.547Z,0
2018-05-26T03:11:53.807Z,0
2018-05-26T03:12:53.856Z,0
2018-05-26T03:13:53.537Z,0
2018-05-26T03:14:53.539Z,0
2018-05-26T03:15:53.803Z,0
2018-05-26T03:16:53.570Z,5
2018-05-26T03:17:53.526Z,5
2018-05-26T03:18:53.283Z,5
2018-05-26T03:19:53.292Z,5
2018-05-26T03:20:53.849Z,5
2018-05-26T03:21:53.787Z,5
2018-05-26T03:22:53.279Z,5
2018-05-26T03:23:53.297Z,5
2018-05-26T03:24:53.278Z,5
2018-05-26T03:25:53.822Z,5
2018-05-26T03:26:53.800Z,5
2018-05-26T03:27:53.006Z,5
2018-05-26T03:28:53.791Z,5
2018-05-26T03:29:53.541Z,5
2018-05-26T03:30:53.808Z,10
2018-05-26T03:31:53.800Z,10
2018-05-26T03:32:53.813Z,10
2018-05-26T03:33:53.275Z,10
2018-05-26T03:34:53.793Z,15
2018-05-26T03:35:53.279Z,15
2018-05-26T03:36:53.795Z,15
2018-05-26T03:37:53.023Z,15
2018-05-26T03:38:53.798Z,20
2018-05-26T03:39:53.541Z,20
2018-05-26T03:40:53.545Z,20
2018-05-26T03:41:53.540Z,20
2018-05-26T03:42:53.555Z,20
2018-05-26T03:43:53.271Z,25
2018-05-26T03:44:53.558Z,25
2018-05-26T03:45:53.533Z,25
2018-05-26T03:46:53.544Z,25
2018-05-26T03:47:53.778Z,30
2018-05-26T03:48:53.273Z,30
2018-05-26T03:49:53.592Z,30
2018-05-26T03:50:53.553Z,30
2018-05-26T03:51:53.810Z,30
2018-05-26T03:52:53.579Z,30
2018-05-26T03:53:53.545Z,35
2018-05-26T03:54:53.558Z,35
2018-05-26T03:55:53.285Z,40
2018-05-26T03:56:53.850Z,45
2018-05-26T03:57:53.557Z,45
2018-05-26T03:58:53.556Z,50
2018-05-26T03:59:53.534Z,60
2018-05-26T04:00:53.022Z,75
2018-05-26T04:01:53.530Z,85
2018-05-26T04:02:53.802Z,90
2018-05-26T04:03:53.555Z,85
2018-05-26T04:04:53.790Z,85
2018-05-26T04:05:53.754Z,75
2018-05-26T04:06:53.549Z,80
2018-05-26T04:07:53.533Z,80
2018-05-26T04:08:53.557Z,85
2018-05-26T04:09:53.807Z,95
2018-05-26T04:10:53.308Z,95
2018-05-26T04:11:52.757Z,100
2018-05-26T04:12:53.293Z,95
2018-05-26T04:13:53.577Z,90
2018-05-26T04:14:53.307Z,90
2018-05-26T04:15:53.283Z,105
2018-05-26T04:16:53.541Z,110
2018-05-26T04:17:53.550Z,110
2018-05-26T04:18:53.567Z,115
2018-05-26T04:19:53.295Z,115
2018-05-26T04:20:53.312Z,120
2018-05-26T04:21:53.818Z,120
2018-05-26T04:22:53.822Z,115
2018-05-26T04:23:53.854Z,105
2018-05-26T04:24:53.581Z,105
2018-05-26T04:25:53.563Z,95
2018-05-26T04:26:54.147Z,95
2018-05-26T04:27:53.825Z,95
2018-05-26T04:28:53.840Z,100
2018-05-26T04:29:53.581Z,100
2018-05-26T04:30:53.592Z,105
2018-05-26T04:31:53.337Z,105
2018-05-26T04:32:53.590Z,110
2018-05-26T04:33:53.331Z,115
2018-05-26T04:34:53.585Z,115
2018-05-26T04:35:53.842Z,120
2018-05-26T04:36:53.354Z,120
2018-05-26T04:37:53.336Z,125
2018-05-26T04:38:53.334Z,130
2018-05-26T04:39:53.621Z,135
2018-05-26T04:40:53.588Z,140
2018-05-26T04:41:53.334Z,140
2018-05-26T04:42:53.591Z,140
2018-05-26T04:43:53.661Z,145
2018-05-26T04:44:53.608Z,145
2018-05-26T04:45:53.862Z,150
2018-05-26T04:46:53.354Z,155
2018-05-26T04:47:53.347Z,155
2018-05-26T04:48:53.364Z,160
2018-05-26T04:49:53.627Z,220
2018-05-26T04:50:53.355Z,175
2018-05-26T04:51:53.898Z,175
2018-05-26T04:52:53.378Z,175
2018-05-26T04:53:53.613Z,180
2018-05-26T04:54:53.105Z,185
2018-05-26T04:55:53.891Z,180
2018-05-26T04:56:53.384Z,175
2018-05-26T04:57:53.877Z,185
2018-05-26T04:58:53.899Z,205
2018-05-26T04:59:53.627Z,165
2018-05-26T05:00:53.381Z,170
2018-05-26T05:01:53.385Z,170
2018-05-26T05:02:53.677Z,170
2018-05-26T05:03:53.675Z,175
2018-05-26T05:04:53.668Z,190
2018-05-26T05:05:53.742Z,195
2018-05-26T05:06:53.401Z,200
2018-05-26T05:07:53.402Z,190
2018-05-26T05:08:53.674Z,230
2018-05-26T05:09:53.416Z,175
2018-05-26T05:10:53.419Z,175
2018-05-26T05:11:53.683Z,180
2018-05-26T05:12:53.942Z,180
2018-05-26T05:13:53.681Z,185
2018-05-26T05:14:53.700Z,185
2018-05-26T05:15:53.425Z,190
2018-05-26T05:16:53.940Z,190
2018-05-26T05:17:53.700Z,190
2018-05-26T05:18:53.684Z,195
2018-05-26T05:19:53.702Z,250
2018-05-26T05:20:53.700Z,195
2018-05-26T05:21:53.433Z,195
2018-05-26T05:22:53.436Z,200
2018-05-26T05:23:53.716Z,205
2018-05-26T05:24:53.959Z,205
2018-05-26T05:25:53.236Z,210
2018-05-26T05:26:53.966Z,210
2018-05-26T05:27:53.980Z,215
2018-05-26T05:28:53.452Z,305
2018-05-26T05:29:53.994Z,220
2018-05-26T05:30:53.732Z,220
2018-05-26T05:31:53.719Z,220
2018-05-26T05:32:54.027Z,220
2018-05-26T05:33:53.214Z,225
2018-05-26T05:34:54.001Z,225
2018-05-26T05:35:54.012Z,230
2018-05-26T05:36:53.509Z,230
2018-05-26T05:37:53.732Z,360
2018-05-26T05:38:53.491Z,245
2018-05-26T05:39:53.485Z,245
2018-05-26T05:40:53.776Z,245
2018-05-26T05:41:53.485Z,250
2018-05-26T05:42:54.015Z,250
2018-05-26T05:43:53.769Z,255
2018-05-26T05:44:54.023Z,260
2018-05-26T05:45:54.038Z,260
2018-05-26T05:46:53.769Z,265
2018-05-26T05:47:53.788Z,275
2018-05-26T05:48:53.801Z,275
2018-05-26T05:49:53.770Z,435
2018-05-26T05:50:53.536Z,300
2018-05-26T05:51:53.529Z,300
2018-05-26T05:52:53.527Z,305
2018-05-26T05:53:53.793Z,310
2018-05-26T05:54:53.534Z,310
2018-05-26T05:55:53.553Z,320
2018-05-26T05:56:55.133Z,335
2018-05-26T05:57:53.814Z,355
2018-05-26T05:58:53.305Z,360
2018-05-26T05:59:53.571Z,355
2018-05-26T06:00:54.079Z,325
2018-05-26T06:01:53.570Z,320
2018-05-26T06:02:53.845Z,335
2018-05-26T06:03:53.823Z,310
2018-05-26T06:04:53.844Z,300
2018-05-26T06:05:53.060Z,305
2018-05-26T06:06:53.630Z,300
2018-05-26T06:07:53.583Z,310
2018-05-26T06:08:53.863Z,315
2018-05-26T06:09:53.888Z,315
2018-05-26T06:10:53.347Z,315
2018-05-26T06:11:53.876Z,325
2018-05-26T06:12:53.867Z,335
2018-05-26T06:23:29.362Z,225
2018-05-26T06:24:28.839Z,210
2018-05-26T06:25:28.835Z,210
2018-05-26T06:26:28.918Z,195
2018-05-26T06:27:28.826Z,190
2018-05-26T06:28:28.832Z,195
2018-05-26T06:29:28.911Z,190
2018-05-26T06:30:29.200Z,185
2018-05-26T06:31:28.924Z,185
2018-05-26T06:32:29.106Z,185
2018-05-26T06:33:29.389Z,190
2018-05-26T06:34:29.445Z,195
2018-05-26T06:35:28.874Z,195
2018-05-26T06:36:29.143Z,210
2018-05-26T06:37:28.919Z,220
2018-05-26T06:38:29.376Z,240
2018-05-26T06:39:28.919Z,240
2018-05-26T06:40:29.402Z,275
2018-05-26T06:41:28.637Z,325
2018-05-26T06:42:29.146Z,355
2018-05-26T06:43:29.412Z,355
2018-05-26T06:44:29.217Z,370
2018-05-26T06:45:29.224Z,380
2018-05-26T06:46:28.912Z,400
2018-05-26T06:47:28.906Z,405
2018-05-26T06:48:29.692Z,405
2018-05-26T06:49:29.171Z,420
2018-05-26T06:50:29.177Z,435
2018-05-26T06:51:29.671Z,440
2018-05-26T06:52:29.186Z,440
2018-05-26T06:53:29.209Z,440
2018-05-26T06:54:28.950Z,440
2018-05-26T06:55:29.211Z,425
2018-05-26T06:56:28.956Z,400
2018-05-26T06:57:29.223Z,440
2018-05-26T06:58:28.715Z,435
2018-05-26T06:59:29.219Z,425
2018-05-26T07:00:29.415Z,420
2018-05-26T07:01:28.998Z,415
2018-05-26T07:02:29.231Z,390
2018-05-26T07:03:29.273Z,390
2018-05-26T07:04:29.276Z,390
2018-05-26T07:05:29.266Z,380
2018-05-26T07:06:29.017Z,420
2018-05-26T07:07:29.554Z,370
2018-05-26T07:08:29.552Z,360
2018-05-26T07:09:29.336Z,370
2018-05-26T07:10:28.799Z,360
2018-05-26T07:11:29.298Z,415
2018-05-26T07:12:29.615Z,430
2018-05-26T07:13:29.065Z,425
2018-05-26T07:14:29.309Z,425
2018-05-26T07:15:28.802Z,435
2018-05-26T07:16:29.355Z,440
2018-05-26T07:17:29.124Z,435
2018-05-26T07:18:28.856Z,430
2018-05-26T07:19:29.115Z,425
2018-05-26T07:20:29.126Z,420
2018-05-26T07:21:29.120Z,405
2018-05-26T07:22:29.652Z,395
2018-05-26T07:23:29.666Z,440
2018-05-26T07:24:29.415Z,440
2018-05-26T07:25:29.143Z,440
2018-05-26T07:26:29.685Z,445
2018-05-26T07:27:29.690Z,430
2018-05-26T07:28:29.443Z,405
2018-05-26T07:29:28.936Z,410
2018-05-26T07:30:29.444Z,415
2018-05-26T07:31:29.455Z,410
2018-05-26T07:32:29.735Z,415
2018-05-26T07:33:29.471Z,430
2018-05-26T07:34:29.215Z,425
2018-05-26T07:35:29.748Z,420
2018-05-26T07:36:29.493Z,430
2018-05-26T07:37:29.256Z,420
2018-05-26T07:38:29.501Z,420
2018-05-26T07:39:29.536Z,415
2018-05-26T07:40:29.800Z,425
2018-05-26T07:41:29.795Z,425
2018-05-26T07:42:29.019Z,430
2018-05-26T07:43:29.308Z,425
2018-05-26T07:44:29.904Z,430
2018-05-26T07:45:29.302Z,435
2018-05-26T07:46:28.804Z,430
2018-05-26T07:47:29.971Z,430
2018-05-26T07:48:29.606Z,425
2018-05-26T07:49:29.900Z,425
2018-05-26T07:50:29.343Z,425
2018-05-26T07:51:29.875Z,425
2018-05-26T07:52:29.682Z,430
2018-05-26T07:53:29.395Z,430
2018-05-26T07:54:29.952Z,430
2018-05-26T07:55:29.968Z,435
2018-05-26T07:56:30.031Z,435
2018-05-26T07:57:29.668Z,435
2018-05-26T07:58:29.654Z,435
2018-05-26T07:59:29.472Z,440
2018-05-26T08:00:29.976Z,440
2018-05-26T08:01:29.433Z,445
2018-05-26T08:02:29.708Z,445
2018-05-26T08:03:29.717Z,425
2018-05-26T08:04:29.743Z,410
2018-05-26T08:05:29.965Z,390
2018-05-26T08:06:29.486Z,340
2018-05-26T08:07:29.492Z,340
2018-05-26T08:08:29.761Z,350
2018-05-26T08:09:29.785Z,355
2018-05-26T08:10:29.796Z,345
2018-05-26T08:11:30.078Z,330
2018-05-26T08:12:29.849Z,295
2018-05-26T08:13:30.427Z,275
2018-05-26T08:14:29.354Z,265
2018-05-26T08:15:29.559Z,285
2018-05-26T08:16:29.590Z,310
2018-05-26T08:17:30.165Z,340
2018-05-26T08:18:29.592Z,300
2018-05-26T08:19:29.861Z,295
2018-05-26T08:20:29.866Z,325
2018-05-26T08:21:30.157Z,340
2018-05-26T08:22:30.142Z,325
2018-05-26T08:23:29.879Z,345
2018-05-26T08:24:29.654Z,320
2018-05-26T08:25:30.195Z,350
2018-05-26T08:26:30.171Z,375
2018-05-26T08:27:30.308Z,360
2018-05-26T08:28:30.250Z,385
2018-05-26T08:29:29.680Z,365
2018-05-26T08:30:29.936Z,395
2018-05-26T08:31:29.692Z,415
2018-05-26T08:32:29.694Z,425
2018-05-26T08:33:30.228Z,420
2018-05-26T08:34:29.709Z,420
2018-05-26T08:35:29.987Z,420
2018-05-26T08:36:30.003Z,425
2018-05-26T08:37:30.005Z,410
2018-05-26T08:38:30.027Z,415
2018-05-26T08:39:29.746Z,400
2018-05-26T08:40:30.275Z,380
2018-05-26T08:41:30.020Z,395
2018-05-26T08:42:29.526Z,390
2018-05-26T08:43:29.586Z,390
2018-05-26T08:44:30.142Z,405
2018-05-26T08:45:29.878Z,405
2018-05-26T08:46:30.327Z,400
2018-05-26T08:47:30.097Z,400
2018-05-26T08:48:29.605Z,395
2018-05-26T08:49:29.833Z,380
2018-05-26T08:50:29.579Z,395
2018-05-26T08:51:30.130Z,405
2018-05-26T08:52:29.868Z,410
2018-05-26T08:53:30.397Z,405
2018-05-26T08:54:30.193Z,395
2018-05-26T08:55:29.668Z,400
2018-05-26T08:56:30.196Z,380
2018-05-26T08:57:30.421Z,370
2018-05-26T08:58:30.172Z,370
2018-05-26T08:59:30.470Z,365
2018-05-26T09:00:29.943Z,360
2018-05-26T09:01:29.960Z,365
2018-05-26T09:02:30.575Z,350
2018-05-26T09:03:30.214Z,365
2018-05-26T09:04:30.289Z,365
2018-05-26T09:05:30.002Z,365
2018-05-26T09:06:30.699Z,365
2018-05-26T09:07:29.746Z,360
2018-05-26T09:08:30.508Z,355
2018-05-26T09:09:30.552Z,360
2018-05-26T09:10:30.023Z,350
2018-05-26T09:11:30.702Z,350
2018-05-26T09:12:29.509Z,350
2018-05-26T09:13:30.032Z,345
2018-05-26T09:14:30.579Z,345
2018-05-26T09:15:30.319Z,355
2018-05-26T09:16:30.310Z,350
2018-05-26T09:17:30.326Z,360
2018-05-26T09:18:30.097Z,355
2018-05-26T09:19:29.804Z,360
2018-05-26T09:20:29.824Z,355
2018-05-26T09:21:30.409Z,355
2018-05-26T09:22:30.364Z,355
2018-05-26T09:23:30.105Z,350
2018-05-26T09:24:30.117Z,345
2018-05-26T09:25:30.872Z,335
2018-05-26T09:26:30.428Z,340
2018-05-26T09:27:29.875Z,335
2018-05-26T09:28:30.157Z,335
2018-05-26T09:29:29.941Z,340
2018-05-26T09:30:30.165Z,345
2018-05-26T09:31:30.604Z,350
2018-05-26T09:32:29.920Z,355
2018-05-26T09:33:30.424Z,350
2018-05-26T09:34:30.170Z,355
2018-05-26T09:35:30.449Z,355
2018-05-26T09:36:30.707Z,350
2018-05-26T09:37:30.729Z,350
2018-05-26T09:38:30.196Z,345
2018-05-26T09:39:30.513Z,345
2018-05-26T09:40:30.226Z,345
2018-05-26T09:41:30.499Z,350
2018-05-26T09:42:30.549Z,345
2018-05-26T09:43:29.971Z,345
2018-05-26T09:44:30.482Z,350
2018-05-26T09:45:30.228Z,345
2018-05-26T09:46:30.769Z,340
2018-05-26T09:47:30.775Z,350
2018-05-26T09:48:30.531Z,345
2018-05-26T09:49:30.538Z,345
2018-05-26T09:50:30.025Z,340
2018-05-26T09:51:30.540Z,335
2018-05-26T09:52:30.801Z,340
2018-05-26T09:53:30.291Z,345
2018-05-26T09:54:30.037Z,340
2018-05-26T09:55:30.832Z,330
2018-05-26T09:56:30.471Z,335
2018-05-26T09:57:30.128Z,335
2018-05-26T09:58:30.057Z,345
2018-05-26T09:59:30.309Z,340
2018-05-26T10:00:30.613Z,340
2018-05-26T10:01:30.582Z,335
2018-05-26T10:02:30.363Z,330
2018-05-26T10:03:30.357Z,330
2018-05-26T10:04:30.918Z,330
2018-05-26T10:05:30.604Z,335
2018-05-26T10:06:30.105Z,330
2018-05-26T10:07:30.639Z,330
2018-05-26T10:08:30.127Z,325
2018-05-26T10:09:30.667Z,320
2018-05-26T10:10:30.922Z,320
2018-05-26T10:11:30.651Z,325
2018-05-26T10:12:30.672Z,320
2018-05-26T10:13:30.816Z,320
2018-05-26T10:14:30.252Z,315
2018-05-26T10:15:30.674Z,310
2018-05-26T10:16:30.689Z,305
2018-05-26T10:17:30.432Z,305
2018-05-26T10:18:30.431Z,310
2018-05-26T10:19:30.195Z,315
2018-05-26T10:20:30.451Z,310
2018-05-26T10:21:31.004Z,305
2018-05-26T10:22:30.460Z,295
2018-05-26T10:23:31.076Z,295
2018-05-26T10:54:05.227Z,340
2018-05-26T10:55:04.655Z,345
2018-05-26T10:56:04.447Z,350
2018-05-26T10:57:04.667Z,345
2018-05-26T10:58:04.903Z,340
2018-05-26T10:59:04.141Z,345
2018-05-26T11:00:04.911Z,345
2018-05-26T11:01:04.679Z,345
2018-05-26T11:02:04.411Z,345
2018-05-26T11:03:04.938Z,345
2018-05-26T11:04:04.781Z,345
2018-05-26T11:05:04.697Z,340
2018-05-26T11:06:04.773Z,340
2018-05-26T11:07:04.447Z,340
2018-05-26T11:08:04.461Z,345
2018-05-26T11:09:04.498Z,340
2018-05-26T11:10:04.717Z,340
2018-05-26T11:11:04.715Z,340
2018-05-26T11:12:04.714Z,345
2018-05-26T11:13:04.737Z,335
2018-05-26T11:14:04.218Z,330
2018-05-26T11:15:04.745Z,340
2018-05-26T11:16:04.245Z,330
2018-05-26T11:17:04.527Z,330
2018-05-26T11:18:06.043Z,335
2018-05-26T11:19:05.334Z,335
2018-05-26T11:20:04.257Z,340
2018-05-26T11:21:05.056Z,335
2018-05-26T11:22:05.073Z,335
2018-05-26T11:23:04.848Z,335
2018-05-26T11:24:05.859Z,330
2018-05-26T11:25:04.582Z,330
2018-05-26T11:26:05.213Z,330
2018-05-26T11:27:05.089Z,330
2018-05-26T11:28:04.586Z,330
2018-05-26T11:29:05.098Z,335
2018-05-26T11:30:04.867Z,325
2018-05-26T11:31:05.140Z,330
2018-05-26T11:32:04.868Z,315
2018-05-26T11:33:04.603Z,310
2018-05-26T11:34:04.621Z,310
2018-05-26T11:35:05.119Z,305
2018-05-26T11:36:04.876Z,305
2018-05-26T11:37:04.886Z,305
2018-05-26T11:38:05.194Z,305
2018-05-26T11:39:04.659Z,310
2018-05-26T11:40:04.651Z,300
2018-05-26T11:41:04.416Z,300
2018-05-26T11:42:04.924Z,300
2018-05-26T11:43:04.410Z,300
2018-05-26T11:44:05.191Z,295
2018-05-26T11:45:05.185Z,295
2018-05-26T11:46:04.951Z,290
2018-05-26T11:47:04.934Z,285
2018-05-26T11:48:04.708Z,285
2018-05-26T11:49:05.220Z,280
2018-05-26T11:50:05.242Z,275
2018-05-26T11:51:05.010Z,275
2018-05-26T11:52:04.976Z,270
2018-05-26T11:53:04.709Z,270
2018-05-26T11:54:05.860Z,270
2018-05-26T11:55:05.306Z,265
2018-05-26T11:56:05.010Z,265
2018-05-26T11:57:05.043Z,260
2018-05-26T11:58:05.015Z,260
2018-05-26T11:59:04.765Z,260
2018-05-26T12:00:05.036Z,260
2018-05-26T12:01:05.052Z,260
2018-05-26T12:02:05.222Z,260
2018-05-26T12:03:05.120Z,255
2018-05-26T12:04:05.311Z,255
2018-05-26T12:05:05.101Z,255
2018-05-26T12:06:05.092Z,250
2018-05-26T12:07:05.089Z,255
2018-05-26T12:08:05.083Z,250
2018-05-26T12:09:04.842Z,250
2018-05-26T12:10:04.590Z,245
2018-05-26T12:11:05.038Z,250
2018-05-26T12:12:05.124Z,245
2018-05-26T12:13:05.125Z,240
2018-05-26T12:14:04.595Z,240
2018-05-26T12:15:05.130Z,240
2018-05-26T12:16:05.437Z,235
2018-05-26T12:17:04.908Z,235
2018-05-26T12:18:04.919Z,235
2018-05-26T12:19:05.193Z,235
2018-05-26T12:20:04.974Z,235
2018-05-26T12:21:04.923Z,235
2018-05-26T12:22:05.471Z,235
2018-05-26T12:23:05.187Z,230
2018-05-26T12:24:06.694Z,230
2018-05-26T12:25:05.471Z,230
2018-05-26T12:26:04.938Z,225
2018-05-26T12:27:05.134Z,225
2018-05-26T12:28:05.219Z,225
2018-05-26T12:29:05.214Z,225
2018-05-26T12:30:05.573Z,225
2018-05-26T12:31:05.339Z,225
2018-05-26T12:32:04.976Z,230
2018-05-26T12:33:05.008Z,230
2018-05-26T12:34:05.133Z,225
2018-05-26T12:35:05.008Z,225
2018-05-26T12:36:05.016Z,225
2018-05-26T12:37:05.260Z,220
2018-05-26T12:38:05.042Z,225
2018-05-26T12:39:05.277Z,220
2018-05-26T12:40:05.763Z,225
2018-05-26T12:41:05.051Z,220
2018-05-26T12:42:05.315Z,220
2018-05-26T12:43:05.308Z,205
2018-05-26T12:44:05.598Z,185
2018-05-26T12:45:05.061Z,170
2018-05-26T12:46:05.344Z,180
2018-05-26T12:47:05.582Z,215
2018-05-26T12:48:05.077Z,215
2018-05-26T12:49:05.357Z,215
2018-05-26T12:50:05.350Z,220
2018-05-26T12:51:04.852Z,220
2018-05-26T12:52:05.361Z,220
2018-05-26T12:53:05.366Z,185
2018-05-26T12:54:05.898Z,215
2018-05-26T12:55:05.397Z,215
2018-05-26T12:56:05.412Z,220
2018-05-26T12:57:05.388Z,220
2018-05-26T12:58:04.622Z,215
2018-05-26T12:59:05.406Z,215
2018-05-26T13:00:04.887Z,215
2018-05-26T13:01:05.422Z,215
2018-05-26T13:02:05.406Z,215
2018-05-26T13:03:05.234Z,215
2018-05-26T13:04:06.237Z,215
2018-05-26T13:05:04.909Z,215
2018-05-26T13:06:05.246Z,215
2018-05-26T13:07:05.744Z,215
2018-05-26T13:08:05.221Z,215
2018-05-26T13:09:05.466Z,215
2018-05-26T13:10:04.700Z,215
2018-05-26T13:11:04.953Z,215
2018-05-26T13:12:05.226Z,215
2018-05-26T13:13:05.767Z,210
2018-05-26T13:14:04.990Z,210
2018-05-26T13:15:05.005Z,215
2018-05-26T13:16:04.994Z,210
2018-05-26T13:17:05.242Z,210
2018-05-26T13:18:05.297Z,215
2018-05-26T13:19:05.011Z,215
2018-05-26T13:20:05.007Z,210
2018-05-26T13:21:05.548Z,210
2018-05-26T13:22:05.281Z,210
2018-05-26T13:23:05.559Z,210
2018-05-26T13:24:05.264Z,210
2018-05-26T13:25:05.540Z,210
2018-05-26T13:26:05.284Z,210
2018-05-26T13:27:05.569Z,210
2018-05-26T13:28:05.562Z,215
2018-05-26T13:29:05.852Z,215
2018-05-26T13:30:05.839Z,215
2018-05-26T13:31:05.326Z,215
2018-05-26T13:32:05.609Z,210
2018-05-26T13:33:05.611Z,210
2018-05-26T13:34:05.595Z,210
2018-05-26T13:35:05.354Z,210
2018-05-26T13:36:05.870Z,210
2018-05-26T13:37:05.620Z,210
2018-05-26T13:38:05.409Z,210
2018-05-26T13:39:05.378Z,205
2018-05-26T13:40:05.111Z,205
2018-05-26T13:41:05.158Z,205
2018-05-26T13:42:05.675Z,205
2018-05-26T13:43:05.650Z,205
2018-05-26T13:44:05.129Z,205
2018-05-26T13:45:05.156Z,205
2018-05-26T13:46:05.697Z,200
2018-05-26T13:47:05.410Z,205
2018-05-26T13:48:05.968Z,205
2018-05-26T13:49:04.937Z,200
2018-05-26T13:50:05.706Z,200
2018-05-26T13:51:05.876Z,200
2018-05-26T13:52:05.726Z,200
2018-05-26T13:53:05.959Z,200
2018-05-26T13:54:05.877Z,200
2018-05-26T13:55:06.335Z,200
2018-05-26T13:56:05.819Z,200
2018-05-26T13:57:05.990Z,200
2018-05-26T13:58:05.495Z,200
2018-05-26T13:59:05.473Z,200
2018-05-26T14:00:05.482Z,200
2018-05-26T14:01:05.770Z,200
2018-05-26T14:02:06.030Z,200
2018-05-26T14:03:05.519Z,200
2018-05-26T14:04:05.793Z,200
2018-05-26T14:05:05.829Z,200
2018-05-26T14:06:05.792Z,200
2018-05-26T14:07:05.333Z,200
2018-05-26T14:08:05.523Z,200
2018-05-26T14:09:05.297Z,200
2018-05-26T14:10:05.634Z,200
2018-05-26T14:11:05.981Z,195
2018-05-26T14:12:05.305Z,200
2018-05-26T14:13:06.094Z,200
2018-05-26T14:14:05.842Z,200
2018-05-26T14:15:05.834Z,200
2018-05-26T14:16:06.114Z,200
2018-05-26T14:17:05.592Z,200
2018-05-26T14:18:05.850Z,200
2018-05-26T14:19:05.912Z,200
2018-05-26T14:20:05.923Z,205
2018-05-26T14:21:05.944Z,205
2018-05-26T14:22:05.882Z,205
2018-05-26T14:23:05.627Z,205
2018-05-26T14:24:05.927Z,205
2018-05-26T14:25:05.430Z,200
2018-05-26T14:26:05.381Z,200
2018-05-26T14:27:06.169Z,200
2018-05-26T14:28:05.903Z,195
2018-05-26T14:29:06.185Z,195
2018-05-26T14:30:05.416Z,195
2018-05-26T14:31:05.737Z,195
2018-05-26T14:32:05.679Z,200
2018-05-26T14:33:05.694Z,190
2018-05-26T14:34:05.439Z,190
2018-05-26T14:35:05.710Z,190
2018-05-26T14:36:06.004Z,190
2018-05-26T14:37:05.997Z,195
2018-05-26T14:38:05.989Z,195
2018-05-26T14:39:05.777Z,195
2018-05-26T14:40:06.012Z,195
2018-05-26T14:41:06.005Z,195
2018-05-26T14:42:05.359Z,195